Time;durP1;ratioP1;P1;durP2;ratioP2;P2;SDS_P1;SDS_P2;PMS_P1;PMS_P2;Temp;Humidity;BMP_temperature;BMP_pressure;BME280_temperature;BME280_humidity;BME280_pressure;Samples;Min_cycle;Max_cycle;Signal;HPM_P1;HPM_P2
2021/07/10 00:00:18;;;;;;;19.20;13.15;;;;;;;14.01;100.00;101237.03;5030100;28;20053;-84
2021/07/10 00:02:47;;;;;;;15.80;13.27;;;;;;;13.96;100.00;101230.09;5028293;28;20451;-83
2021/07/10 00:05:16;;;;;;;24.70;15.32;;;;;;;13.95;100.00;101225.72;5026870;28;20049;-85
2021/07/10 00:07:46;;;;;;;20.48;14.35;;;;;;;13.97;100.00;101232.72;5024934;28;20052;-83
2021/07/10 00:10:17;;;;;;;25.63;14.02;;;;;;;14.01;100.00;101225.66;5026462;28;20037;-84
2021/07/10 00:12:44;;;;;;;20.88;13.32;;;;;;;14.02;100.00;101222.97;5031696;28;20045;-84
2021/07/10 00:15:27;;;;;;;22.17;13.48;;;;;;;14.00;100.00;101223.91;5030205;28;20045;-84
2021/07/10 00:17:56;;;;;;;23.50;12.95;;;;;;;13.97;100.00;101223.94;5046801;28;20044;-85
2021/07/10 00:20:24;;;;;;;18.10;11.63;;;;;;;13.95;100.00;101215.19;5046363;28;20554;-85
2021/07/10 00:22:50;;;;;;;18.02;12.38;;;;;;;13.89;100.00;101213.53;5028677;28;20404;-85
2021/07/10 00:25:19;;;;;;;20.63;13.48;;;;;;;13.86;100.00;101218.84;5043918;28;20869;-84
2021/07/10 00:27:49;;;;;;;20.63;11.20;;;;;;;13.81;100.00;101208.38;5035110;28;20044;-84
2021/07/10 00:30:20;;;;;;;26.05;11.30;;;;;;;13.78;100.00;101207.53;5035964;28;20103;-85
2021/07/10 00:32:48;;;;;;;17.17;12.20;;;;;;;13.74;100.00;101209.34;5030680;28;20045;-85
2021/07/10 00:35:16;;;;;;;17.95;12.52;;;;;;;13.69;100.00;101211.19;5029859;28;20376;-84
2021/07/10 00:37:47;;;;;;;14.55;11.10;;;;;;;13.67;100.00;101207.69;5023562;28;20418;-85
2021/07/10 00:40:15;;;;;;;18.20;13.27;;;;;;;13.65;100.00;101206.81;5028659;28;20583;-84
2021/07/10 00:42:47;;;;;;;23.42;14.88;;;;;;;13.65;100.00;101196.28;5028433;28;20580;-84
2021/07/10 00:45:16;;;;;;;17.83;12.00;;;;;;;13.64;100.00;101191.94;5050674;28;20068;-85
2021/07/10 00:47:46;;;;;;;22.05;11.93;;;;;;;13.58;100.00;101187.63;5030099;28;20139;-83
2021/07/10 00:50:24;;;;;;;19.80;14.18;;;;;;;13.56;100.00;101186.78;5035848;28;20164;-83
2021/07/10 00:52:57;;;;;;;20.25;13.07;;;;;;;13.54;100.00;101185.91;5076488;28;20037;-84
2021/07/10 00:55:41;;;;;;;21.38;13.38;;;;;;;13.53;100.00;101185.06;5040261;28;20063;-85
2021/07/10 00:58:16;;;;;;;16.65;11.77;;;;;;;13.51;100.00;101180.72;5059055;28;20041;-83
2021/07/10 01:00:45;;;;;;;18.98;13.85;;;;;;;13.52;100.00;101180.69;5031710;28;20056;-83
2021/07/10 01:03:14;;;;;;;17.33;12.27;;;;;;;13.48;100.00;101175.47;5038437;28;20049;-83
2021/07/10 01:05:42;;;;;;;21.35;13.00;;;;;;;13.47;100.00;101177.25;5056162;28;20044;-85
2021/07/10 01:08:15;;;;;;;17.27;13.77;;;;;;;13.46;100.00;101182.53;5036496;28;20140;-85
2021/07/10 01:10:46;;;;;;;21.60;13.93;;;;;;;13.42;100.00;101178.19;5056882;28;20057;-85
2021/07/10 01:13:15;;;;;;;23.17;13.52;;;;;;;13.38;100.00;101180.84;5040538;28;20037;-84
2021/07/10 01:15:47;;;;;;;21.35;13.80;;;;;;;13.34;100.00;101183.50;5036261;28;20107;-84
2021/07/10 01:18:17;;;;;;;25.98;13.93;;;;;;;13.33;100.00;101193.16;5050058;28;20037;-85
2021/07/10 01:20:50;;;;;;;22.30;14.45;;;;;;;13.35;100.00;101194.00;5056727;28;20053;-85
2021/07/10 01:23:17;;;;;;;25.83;14.23;;;;;;;13.35;100.00;101190.50;5056018;28;20045;-85
2021/07/10 01:25:46;;;;;;;21.75;13.93;;;;;;;13.34;100.00;101188.78;5039407;28;20064;-83
2021/07/10 01:28:16;;;;;;;22.88;14.98;;;;;;;13.30;100.00;101189.72;5053294;28;20045;-83
2021/07/10 01:30:45;;;;;;;16.83;13.45;;;;;;;13.27;100.00;101185.34;5032970;28;20136;-85
2021/07/10 01:33:15;;;;;;;20.23;13.07;;;;;;;13.21;100.00;101183.66;5061101;28;20037;-84
2021/07/10 01:35:49;;;;;;;22.85;13.60;;;;;;;13.19;100.00;101192.44;5048048;28;20064;-83
2021/07/10 01:38:16;;;;;;;24.20;13.75;;;;;;;13.13;100.00;101190.75;5048095;28;20940;-83
2021/07/10 01:40:48;;;;;;;24.75;16.55;;;;;;;13.08;100.00;101190.78;5046841;28;20120;-84
2021/07/10 01:43:17;;;;;;;25.63;14.32;;;;;;;13.05;100.00;101195.25;5049279;28;20036;-83
2021/07/10 01:45:44;;;;;;;22.35;14.20;;;;;;;13.01;100.00;101189.13;5047717;28;20037;-83
2021/07/10 01:48:12;;;;;;;23.63;15.30;;;;;;;13.00;100.00;101192.63;5034635;28;20143;-84
2021/07/10 01:50:46;;;;;;;21.17;14.02;;;;;;;13.00;100.00;101187.38;5032257;28;20855;-84
2021/07/10 01:53:14;;;;;;;23.63;16.20;;;;;;;13.02;100.00;101187.38;5035737;28;20053;-83
2021/07/10 01:55:41;;;;;;;28.48;15.10;;;;;;;13.00;100.00;101182.13;5045537;28;20488;-83
2021/07/10 01:58:08;;;;;;;29.42;15.48;;;;;;;13.01;100.00;101177.72;5027011;28;20527;-83
2021/07/10 02:00:43;;;;;;;27.08;14.65;;;;;;;13.01;100.00;101188.25;5050092;28;20059;-83
2021/07/10 02:03:12;;;;;;;21.77;14.38;;;;;;;12.97;100.00;101181.28;5047053;28;20134;-83
2021/07/10 02:05:39;;;;;;;21.75;13.98;;;;;;;12.96;100.00;101179.53;5032060;28;20542;-83
2021/07/10 02:08:08;;;;;;;20.10;14.55;;;;;;;12.93;100.00;101182.22;5029263;28;20171;-83
2021/07/10 02:10:38;;;;;;;26.63;14.73;;;;;;;12.91;100.00;101177.84;5033789;28;20124;-82
2021/07/10 02:13:10;;;;;;;25.02;15.25;;;;;;;12.90;100.00;101181.34;5046329;28;20049;-85
2021/07/10 02:15:38;;;;;;;24.13;15.87;;;;;;;12.91;100.00;101174.34;5041715;28;20136;-82
2021/07/10 02:18:06;;;;;;;24.42;15.05;;;;;;;12.94;100.00;101190.06;5028289;28;20040;-82
2021/07/10 02:20:36;;;;;;;27.63;15.90;;;;;;;12.93;100.00;101187.47;5026837;28;20045;-85
2021/07/10 02:23:04;;;;;;;29.75;14.10;;;;;;;12.90;100.00;101191.84;5031640;28;20087;-83
2021/07/10 02:25:31;;;;;;;24.40;14.45;;;;;;;12.89;100.00;101181.34;5024557;28;20076;-85
2021/07/10 02:27:58;;;;;;;19.80;14.55;;;;;;;12.89;100.00;101179.63;5033803;28;20036;-84
2021/07/10 02:30:29;;;;;;;27.88;16.58;;;;;;;12.87;100.00;101196.28;5038169;28;20481;-83
2021/07/10 02:32:58;;;;;;;25.23;16.95;;;;;;;12.83;100.00;101195.44;5046880;28;20419;-83
2021/07/10 02:35:28;;;;;;;20.17;14.77;;;;;;;12.81;100.00;101188.47;5027717;28;20037;-83
2021/07/10 02:37:55;;;;;;;25.25;14.93;;;;;;;12.79;100.00;101185.84;5041186;28;20124;-83
2021/07/10 02:40:24;;;;;;;22.10;14.77;;;;;;;12.78;100.00;101185.88;5049447;28;20041;-83
2021/07/10 02:42:56;;;;;;;27.23;15.02;;;;;;;12.75;100.00;101186.78;5047234;28;20051;-83
2021/07/10 02:45:25;;;;;;;21.95;13.98;;;;;;;12.72;100.00;101181.53;5043736;28;20091;-86
2021/07/10 02:47:54;;;;;;;23.63;15.15;;;;;;;12.66;100.00;101178.94;5029593;28;20041;-84
2021/07/10 02:50:26;;;;;;;24.92;16.00;;;;;;;12.65;100.00;101183.34;5029168;28;20049;-84
2021/07/10 02:52:56;;;;;;;24.25;15.00;;;;;;;12.60;100.00;101187.75;5022167;28;20186;-85
2021/07/10 02:55:26;;;;;;;22.48;16.10;;;;;;;12.57;100.00;101185.19;5047888;28;20045;-86
2021/07/10 02:57:55;;;;;;;22.20;14.73;;;;;;;12.53;100.00;101175.59;5027015;28;20950;-85
2021/07/10 03:00:26;;;;;;;23.70;16.27;;;;;;;12.47;100.00;101173.00;5010316;28;20519;-86
2021/07/10 03:02:56;;;;;;;22.77;14.40;;;;;;;12.44;100.00;101170.38;5029905;28;20076;-86
2021/07/10 03:05:23;;;;;;;22.40;15.35;;;;;;;12.40;100.00;101162.53;5008762;28;20033;-85
2021/07/10 03:07:50;;;;;;;23.05;15.05;;;;;;;12.41;100.00;101163.41;5043120;28;20076;-85
2021/07/10 03:10:27;;;;;;;21.35;14.57;;;;;;;12.44;100.00;101167.75;5024877;28;20115;-85
2021/07/10 03:12:58;;;;;;;21.55;14.73;;;;;;;12.44;100.00;101171.28;5023387;28;20059;-84
2021/07/10 03:15:26;;;;;;;24.15;15.68;;;;;;;12.47;100.00;101167.75;5049260;28;20136;-85
2021/07/10 03:17:55;;;;;;;26.55;17.23;;;;;;;12.47;100.00;101168.63;5009639;28;20041;-85
2021/07/10 03:20:26;;;;;;;20.05;15.20;;;;;;;12.44;100.00;101165.13;5025154;28;20053;-86
2021/07/10 03:22:56;;;;;;;24.38;16.70;;;;;;;12.43;100.00;101166.91;5027022;28;20049;-85
2021/07/10 03:25:23;;;;;;;24.52;16.85;;;;;;;12.43;100.00;101156.41;5011345;28;20065;-85
2021/07/10 03:27:52;;;;;;;23.90;15.85;;;;;;;12.41;100.00;101164.28;5009511;28;20132;-84
2021/07/10 03:30:21;;;;;;;27.95;16.90;;;;;;;12.46;100.00;101164.25;5006843;28;20107;-85
2021/07/10 03:32:49;;;;;;;29.60;16.83;;;;;;;12.51;100.00;101157.19;5026027;28;20037;-84
2021/07/10 03:35:22;;;;;;;22.67;16.50;;;;;;;12.52;100.00;101163.34;5025705;28;20041;-84
2021/07/10 03:37:51;;;;;;;23.58;14.77;;;;;;;12.53;100.00;101158.06;5005971;28;20504;-85
2021/07/10 03:40:24;;;;;;;27.98;16.17;;;;;;;12.55;100.00;101160.66;5025389;28;20052;-84
2021/07/10 03:42:51;;;;;;;24.55;16.15;;;;;;;12.51;100.00;101158.97;5009284;28;20053;-85
2021/07/10 03:45:18;;;;;;;19.77;14.32;;;;;;;12.49;100.00;101160.72;5034593;28;20072;-85
2021/07/10 03:47:46;;;;;;;25.33;16.95;;;;;;;12.47;100.00;101157.25;5038041;28;20046;-85
2021/07/10 03:50:17;;;;;;;23.15;15.18;;;;;;;12.47;100.00;101159.88;5027168;28;20060;-85
2021/07/10 03:52:45;;;;;;;32.17;13.52;;;;;;;12.45;100.00;101166.88;5041795;28;20040;-85
2021/07/10 03:55:13;;;;;;;25.50;17.17;;;;;;;12.46;100.00;101163.38;5041557;28;20049;-85
2021/07/10 03:57:48;;;;;;;24.88;16.85;;;;;;;12.49;100.00;101153.72;5037257;28;20091;-85
2021/07/10 04:00:20;;;;;;;27.13;16.00;;;;;;;12.54;100.00;101157.19;5025223;28;20063;-85
2021/07/10 04:02:47;;;;;;;19.73;14.35;;;;;;;12.58;100.00;101155.41;5059671;28;20045;-85
2021/07/10 04:05:15;;;;;;;19.10;13.32;;;;;;;12.58;100.00;101153.63;5029234;28;20055;-85
2021/07/10 04:07:45;;;;;;;20.30;12.45;;;;;;;12.61;100.00;101154.50;5026515;28;20060;-85
2021/07/10 04:10:13;;;;;;;22.65;16.60;;;;;;;12.64;100.00;101149.22;5027342;28;20073;-84
2021/07/10 04:12:48;;;;;;;27.75;15.77;;;;;;;12.67;100.00;101144.81;5045312;28;20048;-84
2021/07/10 04:15:19;;;;;;;22.48;15.02;;;;;;;12.70;100.00;101138.66;5018635;28;20045;-84
2021/07/10 04:17:47;;;;;;;20.65;13.27;;;;;;;12.70;100.00;101142.16;5038329;28;20069;-84
2021/07/10 04:20:18;;;;;;;20.08;13.60;;;;;;;12.70;100.00;101144.78;5049838;28;20045;-84
2021/07/10 04:22:46;;;;;;;19.08;13.88;;;;;;;12.71;100.00;101146.53;5046315;28;20127;-84
2021/07/10 04:25:17;;;;;;;21.50;14.07;;;;;;;12.75;100.00;101152.63;5034837;28;20049;-84
2021/07/10 04:27:46;;;;;;;23.92;15.25;;;;;;;12.78;100.00;101154.34;5048536;28;20115;-84
2021/07/10 04:30:16;;;;;;;21.20;14.98;;;;;;;12.81;100.00;101149.91;5033797;28;20470;-84
2021/07/10 04:32:45;;;;;;;19.90;14.27;;;;;;;12.87;100.00;101151.63;5046593;28;20062;-84
2021/07/10 04:35:12;;;;;;;20.15;14.35;;;;;;;12.94;100.00;101147.16;5049877;28;20057;-84
2021/07/10 04:37:39;;;;;;;19.23;14.82;;;;;;;13.02;100.00;101140.06;5033584;28;20053;-84
2021/07/10 04:40:08;;;;;;;19.23;13.77;;;;;;;13.08;100.00;101137.38;5031196;28;20127;-84
2021/07/10 04:42:35;;;;;;;21.67;14.63;;;;;;;13.18;100.00;101139.00;5034716;28;20523;-85
2021/07/10 04:45:02;;;;;;;23.17;14.27;;;;;;;13.26;100.00;101138.91;5034884;28;20045;-84
2021/07/10 04:47:29;;;;;;;22.40;13.57;;;;;;;13.32;100.00;101149.31;5022458;28;20055;-83
2021/07/10 04:49:56;;;;;;;18.42;12.95;;;;;;;13.41;100.00;101143.13;5064218;28;20128;-82
2021/07/10 04:52:28;;;;;;;19.65;13.35;;;;;;;13.46;100.00;101148.34;5051178;28;20049;-85
2021/07/10 04:54:55;;;;;;;17.63;13.05;;;;;;;13.49;100.00;101151.81;5053432;28;20041;-84
2021/07/10 04:57:26;;;;;;;16.58;12.48;;;;;;;13.52;100.00;101149.13;5028042;28;20053;-83
2021/07/10 04:59:59;;;;;;;17.48;12.60;;;;;;;13.55;100.00;101156.09;5050319;28;20055;-82
2021/07/10 05:02:26;;;;;;;19.63;14.23;;;;;;;13.60;100.00;101150.75;5056384;28;20048;-84
2021/07/10 05:04:57;;;;;;;17.83;13.35;;;;;;;13.66;100.00;101150.69;5032478;28;20106;-83
2021/07/10 05:07:31;;;;;;;19.20;12.25;;;;;;;13.75;100.00;101157.59;5034043;28;20105;-83
2021/07/10 05:09:58;;;;;;;20.73;13.07;;;;;;;13.81;100.00;101153.09;5033300;28;20403;-83
2021/07/10 05:12:26;;;;;;;19.35;12.43;;;;;;;13.89;100.00;101153.84;5034010;28;20067;-83
2021/07/10 05:14:58;;;;;;;19.20;13.65;;;;;;;13.90;100.00;101139.81;5053993;28;20048;-84
2021/07/10 05:17:25;;;;;;;17.77;12.23;;;;;;;13.97;100.00;101152.88;5025252;28;20041;-83
2021/07/10 05:19:51;;;;;;;20.85;13.32;;;;;;;14.01;100.00;101158.06;5030526;28;20045;-85
2021/07/10 05:22:19;;;;;;;17.42;12.32;;;;;;;14.05;100.00;101154.53;5033169;28;20139;-85
2021/07/10 05:24:45;;;;;;;18.02;12.38;;;;;;;14.12;100.00;101159.66;5034751;28;20045;-85
2021/07/10 05:27:12;;;;;;;15.27;11.20;;;;;;;14.19;100.00;101148.16;5034280;28;20147;-85
2021/07/10 05:29:39;;;;;;;15.45;11.70;;;;;;;14.33;100.00;101156.69;5052176;28;20045;-85
2021/07/10 05:32:09;;;;;;;17.38;11.77;;;;;;;14.50;100.00;101145.88;5034356;28;20048;-85
2021/07/10 05:34:38;;;;;;;15.43;11.98;;;;;;;14.70;100.00;101144.69;5031048;28;20317;-83
2021/07/10 05:37:06;;;;;;;14.73;12.23;;;;;;;14.88;100.00;101146.13;5032176;28;20049;-83
2021/07/10 05:39:36;;;;;;;16.55;10.63;;;;;;;15.04;100.00;101151.94;5043344;28;20048;-85
2021/07/10 05:42:06;;;;;;;14.63;10.30;;;;;;;15.25;100.00;101148.00;5029219;28;20135;-84
2021/07/10 05:44:35;;;;;;;10.68;9.00;;;;;;;15.55;100.00;101153.53;5033509;28;20502;-85
2021/07/10 05:47:02;;;;;;;14.55;10.43;;;;;;;15.82;100.00;101153.88;5027071;28;20062;-84
2021/07/10 05:49:30;;;;;;;15.88;10.77;;;;;;;16.01;100.00;101151.69;5034431;28;20137;-85
2021/07/10 05:51:59;;;;;;;19.20;11.27;;;;;;;16.05;97.97;101150.72;5036245;28;20569;-85
2021/07/10 05:54:28;;;;;;;12.00;9.98;;;;;;;16.03;96.48;101152.50;5050224;28;20056;-85
2021/07/10 05:56:55;;;;;;;18.65;11.48;;;;;;;16.05;94.51;101150.72;5066490;28;20067;-85
2021/07/10 05:59:22;;;;;;;12.60;10.20;;;;;;;16.14;94.71;101149.59;5052705;28;20044;-85
2021/07/10 06:01:48;;;;;;;12.75;9.68;;;;;;;16.31;92.79;101154.47;5038334;28;20039;-85
2021/07/10 06:04:16;;;;;;;14.32;10.02;;;;;;;16.52;90.56;101164.50;5036328;28;20396;-85
2021/07/10 06:06:45;;;;;;;13.20;9.93;;;;;;;16.67;90.43;101157.09;5082593;28;20063;-85
2021/07/10 06:09:14;;;;;;;12.90;10.15;;;;;;;16.77;89.64;101157.72;5063987;28;20478;-85
2021/07/10 06:11:41;;;;;;;11.13;9.45;;;;;;;16.83;88.88;101163.72;5049587;28;20868;-85
2021/07/10 06:14:09;;;;;;;12.05;9.30;;;;;;;16.97;88.55;101165.13;5050946;28;20477;-85
2021/07/10 06:16:38;;;;;;;11.38;9.52;;;;;;;17.12;87.68;101162.06;5040882;28;20082;-84
2021/07/10 06:19:07;;;;;;;10.63;9.45;;;;;;;17.28;87.42;101162.50;5048430;28;20041;-84
2021/07/10 06:21:36;;;;;;;11.00;9.48;;;;;;;17.44;86.86;101162.03;5045940;28;20048;-83
2021/07/10 06:24:06;;;;;;;12.32;8.88;;;;;;;17.46;85.40;101163.75;5034639;28;20068;-84
2021/07/10 06:26:37;;;;;;;12.10;8.93;;;;;;;17.49;84.99;101174.22;5034503;28;20051;-84
2021/07/10 06:29:06;;;;;;;9.20;8.27;;;;;;;17.48;84.60;101167.22;5064473;28;20044;-86
2021/07/10 06:31:33;;;;;;;9.98;8.63;;;;;;;17.52;84.54;101166.22;5022661;28;20450;-86
2021/07/10 06:34:08;;;;;;;11.57;9.02;;;;;;;17.64;83.93;101166.75;5033822;28;20114;-85
2021/07/10 06:36:36;;;;;;;;;;;;;;;17.75;82.46;101167.28;5062238;28;20060;-86
2021/07/10 06:39:05;;;;;;;9.38;6.93;;;;;;;17.91;82.43;101169.47;5080613;28;20303;-85
2021/07/10 06:41:36;;;;;;;9.10;7.80;;;;;;;17.98;79.23;101177.19;5048701;28;20068;-86
2021/07/10 06:44:06;;;;;;;10.45;8.23;;;;;;;17.99;78.13;101172.75;5049838;28;20045;-85
2021/07/10 06:46:39;;;;;;;9.27;7.65;;;;;;;18.01;79.12;101176.22;5057118;28;20102;-85
2021/07/10 06:49:05;;;;;;;11.53;8.90;;;;;;;17.99;78.81;101172.75;5033478;28;20132;-85
2021/07/10 06:51:35;;;;;;;9.00;7.85;;;;;;;18.01;79.23;101170.94;5034925;28;20650;-85
2021/07/10 06:54:02;;;;;;;8.95;8.05;;;;;;;18.04;78.47;101173.47;5049392;28;20046;-85
2021/07/10 06:56:28;;;;;;;14.43;8.07;;;;;;;18.09;77.89;101173.34;5034356;28;20064;-86
2021/07/10 06:58:58;;;;;;;11.65;9.02;;;;;;;18.16;77.06;101173.09;5033120;28;20066;-85
2021/07/10 07:01:28;;;;;;;9.90;8.05;;;;;;;18.24;76.45;101171.97;5049242;28;20045;-85
2021/07/10 07:03:56;;;;;;;11.65;8.20;;;;;;;18.39;76.21;101175.91;5056519;28;20048;-83
2021/07/10 07:06:25;;;;;;;11.52;8.85;;;;;;;18.50;75.02;101182.59;5034722;28;20147;-86
2021/07/10 07:08:58;;;;;;;9.82;8.63;;;;;;;18.65;74.95;101183.84;5061586;28;20489;-86
2021/07/10 07:11:25;;;;;;;11.53;10.17;;;;;;;18.74;74.34;101184.47;5034999;28;20049;-84
2021/07/10 07:13:55;;;;;;;10.02;7.70;;;;;;;18.86;74.35;101181.34;5032508;28;20138;-84
2021/07/10 07:16:26;;;;;;;9.82;8.55;;;;;;;19.00;72.50;101170.31;5024731;28;20120;-84
2021/07/10 07:18:55;;;;;;;10.80;8.70;;;;;;;19.05;72.58;101175.44;5031746;28;20087;-84
2021/07/10 07:21:28;;;;;;;10.70;7.72;;;;;;;19.07;73.05;101170.94;5032548;28;20059;-84
2021/07/10 07:23:57;;;;;;;12.18;7.80;;;;;;;19.18;72.85;101172.28;5033081;28;20045;-85
2021/07/10 07:26:25;;;;;;;10.40;7.80;;;;;;;19.31;72.50;101171.84;5047891;28;20041;-84
2021/07/10 07:28:56;;;;;;;9.52;8.68;;;;;;;19.43;71.37;101171.38;5031594;28;20075;-84
2021/07/10 07:31:28;;;;;;;8.07;7.10;;;;;;;19.57;71.35;101168.19;5048916;28;20041;-84
2021/07/10 07:33:55;;;;;;;9.52;8.20;;;;;;;19.68;70.16;101170.41;5032409;28;20438;-84
2021/07/10 07:36:26;;;;;;;10.90;8.70;;;;;;;19.64;69.86;101166.16;5047627;28;20470;-84
2021/07/10 07:38:56;;;;;;;8.35;6.97;;;;;;;19.61;69.88;101174.25;5049732;28;20131;-84
2021/07/10 07:41:26;;;;;;;8.25;7.43;;;;;;;19.61;69.66;101175.09;5030013;28;20048;-85
2021/07/10 07:43:52;;;;;;;8.90;7.88;;;;;;;19.69;69.23;101172.16;5034221;28;20072;-84
2021/07/10 07:46:19;;;;;;;9.27;7.38;;;;;;;19.78;69.40;101174.44;5031426;28;20056;-86
2021/07/10 07:48:48;;;;;;;10.00;8.15;;;;;;;19.93;68.45;101172.16;5043311;28;20045;-86
2021/07/10 07:51:16;;;;;;;8.02;7.15;;;;;;;20.11;67.95;101167.88;5034010;28;20139;-86
2021/07/10 07:53:47;;;;;;;7.30;6.55;;;;;;;20.24;67.43;101168.25;5030102;28;20079;-86
2021/07/10 07:56:16;;;;;;;11.82;7.25;;;;;;;20.43;66.93;101160.38;5051354;28;20049;-85
2021/07/10 07:58:46;;;;;;;8.18;6.97;;;;;;;20.59;66.25;101158.78;5029184;28;20073;-84
2021/07/10 08:01:16;;;;;;;9.50;7.85;;;;;;;20.65;65.48;101155.00;5030307;28;20065;-84
2021/07/10 08:03:48;;;;;;;8.18;7.00;;;;;;;20.76;65.97;101150.09;5049399;28;20780;-85
2021/07/10 08:06:17;;;;;;;8.98;6.50;;;;;;;20.89;64.42;101157.56;5048465;28;20049;-85
2021/07/10 08:08:46;;;;;;;10.18;7.40;;;;;;;21.05;64.23;101155.06;5028993;28;20044;-86
2021/07/10 08:11:16;;;;;;;9.90;6.95;;;;;;;21.38;63.23;101150.00;5048258;28;20041;-86
2021/07/10 08:13:46;;;;;;;9.93;7.60;;;;;;;21.66;61.34;101154.06;5045258;28;20065;-86
2021/07/10 08:16:15;;;;;;;9.30;7.90;;;;;;;21.67;60.88;101149.59;5021644;28;20105;-86
2021/07/10 08:18:42;;;;;;;6.25;5.65;;;;;;;21.79;61.68;101143.69;5048444;28;20776;-85
2021/07/10 08:21:08;;;;;;;7.72;6.90;;;;;;;22.15;60.59;101140.16;5032586;28;20041;-85
2021/07/10 08:23:36;;;;;;;8.63;7.07;;;;;;;22.41;59.39;101140.66;5032411;28;20075;-84
2021/07/10 08:26:10;;;;;;;8.80;7.10;;;;;;;22.35;58.97;101147.16;5041117;28;20048;-85
2021/07/10 08:28:37;;;;;;;8.13;7.28;;;;;;;22.17;59.15;101148.06;5033443;28;20056;-84
2021/07/10 08:31:06;;;;;;;8.85;7.93;;;;;;;21.98;60.00;101151.66;5030133;28;20052;-86
2021/07/10 08:33:38;;;;;;;10.20;7.82;;;;;;;21.72;59.46;101144.91;5030814;28;20049;-86
2021/07/10 08:36:08;;;;;;;8.98;8.07;;;;;;;22.01;59.19;101151.50;5040982;28;20417;-85
2021/07/10 08:38:37;;;;;;;10.93;8.15;;;;;;;22.86;57.20;101141.88;5025381;28;20552;-84
2021/07/10 08:41:26;;;;;;;9.07;7.28;;;;;;;24.04;53.67;101149.72;5046568;28;20059;-84
2021/07/10 08:43:57;;;;;;;8.32;6.90;;;;;;;24.90;51.93;101148.25;5040840;28;20095;-84
2021/07/10 08:46:26;;;;;;;10.05;8.38;;;;;;;25.66;49.70;101146.22;5045801;28;20045;-84
2021/07/10 08:48:58;;;;;;;8.80;7.15;;;;;;;26.17;47.63;101143.75;5027585;28;20068;-86
2021/07/10 08:51:27;;;;;;;7.40;5.95;;;;;;;26.54;46.78;101146.63;5044514;28;20033;-86
2021/07/10 08:53:56;;;;;;;6.53;5.93;;;;;;;27.04;45.77;101143.25;5023603;28;20046;-86
2021/07/10 08:56:27;;;;;;;7.30;6.78;;;;;;;27.44;44.58;101145.75;5039245;28;20065;-83
2021/07/10 08:58:56;;;;;;;7.70;6.90;;;;;;;27.66;43.90;101144.22;5043160;28;20042;-85
2021/07/10 09:01:28;;;;;;;6.70;6.10;;;;;;;28.05;42.72;101142.25;5064003;28;20041;-85
2021/07/10 09:03:57;;;;;;;7.50;6.80;;;;;;;28.55;41.95;101139.31;5046640;28;20091;-86
2021/07/10 09:06:27;;;;;;;6.78;5.88;;;;;;;29.03;40.75;101143.72;5047059;28;20337;-87
2021/07/10 09:08:56;;;;;;;6.60;5.65;;;;;;;29.54;40.14;101143.22;5046848;28;20402;-85
2021/07/10 09:11:25;;;;;;;6.47;5.78;;;;;;;29.64;39.76;101145.16;5030596;28;20200;-86
2021/07/10 09:13:56;;;;;;;7.13;6.53;;;;;;;29.37;40.03;101146.41;5029273;28;20056;-86
2021/07/10 09:16:31;;;;;;;9.02;6.85;;;;;;;28.97;40.45;101144.19;5047037;28;20041;-87
2021/07/10 09:19:05;;;;;;;7.38;6.68;;;;;;;28.34;41.52;101152.63;5062535;28;20040;-86
2021/07/10 09:21:50;;;;;;;6.18;5.65;;;;;;;28.45;40.48;101147.28;5030941;28;20526;-86
2021/07/10 09:24:24;;;;;;;6.18;5.18;;;;;;;28.75;40.74;101145.03;5047222;28;20063;-87
2021/07/10 09:26:58;;;;;;;5.72;5.28;;;;;;;29.66;39.10;101141.34;5047338;28;20037;-87
2021/07/10 09:29:29;;;;;;;6.72;6.20;;;;;;;29.97;38.09;101138.84;5027556;28;20059;-86
2021/07/10 09:32:06;;;;;;;6.63;6.05;;;;;;;30.00;37.44;101143.97;5025631;28;20052;-85
2021/07/10 09:34:42;;;;;;;6.32;5.82;;;;;;;30.72;36.48;101133.44;5031324;28;20041;-85
2021/07/10 09:37:30;;;;;;;5.78;4.40;;;;;;;31.37;35.27;101135.00;5028980;28;20572;-85
2021/07/10 09:40:10;;;;;;;6.18;5.68;;;;;;;30.39;35.74;101135.34;5047700;28;20061;-86
2021/07/10 09:42:43;;;;;;;6.43;5.82;;;;;;;29.04;38.16;101140.03;5033436;28;20045;-86
2021/07/10 09:45:22;;;;;;;5.00;4.60;;;;;;;29.08;38.28;101140.66;5031534;28;20132;-86
2021/07/10 09:47:49;;;;;;;5.65;4.80;;;;;;;30.03;37.72;101132.06;5030856;28;20132;-85
2021/07/10 09:50:26;;;;;;;5.85;5.32;;;;;;;31.32;35.14;101130.00;5032699;28;20041;-87
2021/07/10 09:52:53;;;;;;;6.55;5.90;;;;;;;31.03;34.70;101122.63;5028650;28;20064;-87
2021/07/10 09:55:20;;;;;;;6.55;5.95;;;;;;;30.02;36.34;101122.25;5027700;28;20041;-88
2021/07/10 09:57:48;;;;;;;5.32;4.90;;;;;;;29.31;37.97;101128.06;5028058;28;20114;-85
2021/07/10 10:00:18;;;;;;;6.50;5.90;;;;;;;28.88;38.51;101110.78;5049612;28;20750;-85
2021/07/10 10:02:49;;;;;;;7.38;6.75;;;;;;;28.83;38.69;101107.59;5028706;28;20045;-86
2021/07/10 10:05:29;;;;;;;6.22;5.70;;;;;;;28.65;38.21;101116.13;5049030;28;20091;-86
2021/07/10 10:08:02;;;;;;;6.63;6.03;;;;;;;29.48;37.29;101108.66;5028945;28;20048;-85
2021/07/10 10:10:32;;;;;;;5.20;4.70;;;;;;;30.71;35.41;101099.28;5047371;28;20037;-87
2021/07/10 10:13:05;;;;;;;9.02;6.00;;;;;;;32.12;32.39;101102.91;5029831;28;20037;-85
2021/07/10 10:15:33;;;;;;;5.72;5.22;;;;;;;32.81;31.56;101109.09;5043255;28;20045;-86
2021/07/10 10:18:00;;;;;;;4.15;3.80;;;;;;;32.41;31.80;101102.91;5030046;28;20045;-86
2021/07/10 10:20:28;;;;;;;5.35;4.88;;;;;;;32.90;31.49;101088.34;5047301;28;20041;-85
2021/07/10 10:22:54;;;;;;;4.97;3.83;;;;;;;33.74;30.76;101091.84;5044071;28;20047;-86
2021/07/10 10:25:22;;;;;;;5.05;4.55;;;;;;;33.90;30.20;101092.03;5032687;28;20091;-87
2021/07/10 10:27:52;;;;;;;5.20;4.80;;;;;;;34.32;29.53;101086.94;5029843;28;20045;-86
2021/07/10 10:30:21;;;;;;;4.80;4.50;;;;;;;34.76;28.76;101092.34;5031886;28;20128;-86
2021/07/10 10:32:49;;;;;;;5.45;4.90;;;;;;;35.37;27.53;101087.69;5029198;28;20455;-86
2021/07/10 10:35:17;;;;;;;5.15;4.75;;;;;;;35.97;26.87;101083.03;5026219;28;20044;-86
2021/07/10 10:37:44;;;;;;;4.30;4.00;;;;;;;36.42;26.34;101080.78;5030007;28;20056;-86
2021/07/10 10:40:15;;;;;;;4.97;3.92;;;;;;;36.67;26.00;101081.53;5042206;28;20162;-87
2021/07/10 10:42:45;;;;;;;4.68;4.28;;;;;;;37.09;24.97;101076.78;5048770;28;20052;-87
2021/07/10 10:45:12;;;;;;;4.28;3.97;;;;;;;37.00;25.02;101083.31;5027664;28;20114;-86
2021/07/10 10:47:49;;;;;;;4.07;3.78;;;;;;;36.99;25.18;101073.44;5046033;28;20056;-86
2021/07/10 10:50:26;;;;;;;4.78;4.10;;;;;;;36.85;24.91;101073.16;5030018;28;20091;-86
2021/07/10 10:52:56;;;;;;;3.42;3.15;;;;;;;35.37;26.69;101070.50;5030785;28;20057;-86
2021/07/10 10:55:29;;;;;;;5.15;4.10;;;;;;;32.92;28.78;101073.66;5028074;28;20045;-86
2021/07/10 10:58:16;;;;;;;6.95;4.22;;;;;;;31.47;31.55;101071.81;5047223;28;20061;-86
2021/07/10 11:00:58;;;;;;;3.42;3.13;;;;;;;31.99;31.33;101068.00;5046785;28;20049;-86
2021/07/10 11:03:36;;;;;;;3.70;3.50;;;;;;;32.87;30.07;101058.81;5044326;28;20048;-87
2021/07/10 11:06:03;;;;;;;4.68;3.65;;;;;;;33.24;29.34;101060.63;5044880;28;20057;-87
2021/07/10 11:08:52;;;;;;;5.30;4.85;;;;;;;33.62;28.96;101058.66;5044381;28;20068;-87
2021/07/10 11:11:20;;;;;;;3.80;3.50;;;;;;;34.55;27.65;101054.66;5044444;28;20068;-87
2021/07/10 11:14:08;;;;;;;3.80;3.50;;;;;;;35.85;26.03;101052.53;5043423;28;20076;-85
2021/07/10 11:16:36;;;;;;;4.15;3.85;;;;;;;36.98;24.63;101050.75;5030295;28;20045;-86
2021/07/10 11:19:09;;;;;;;4.25;3.83;;;;;;;37.47;23.93;101046.91;5030521;28;20071;-87
2021/07/10 11:21:37;;;;;;;3.50;3.30;;;;;;;38.18;23.39;101038.44;5030838;28;20045;-87
2021/07/10 11:24:20;;;;;;;4.82;4.43;;;;;;;38.03;22.75;101040.31;5044246;28;20057;-87